Garlock, California
Current Conditions -  °F | °C
As of 3:56 AM on Sunday 23 Nov 2014 (Local Time) from KNID Reporting Station
Clear Clear  
Wind Chill: 44°   Ceiling: Unl
Heat Index: 44°   Visibility: 10mi
Dew Point: 29°   Wind: 3mph
Humidity: 55%   Direction: 310°NW
Pressure: 30.13"   Gusts: NA
Location:  35.4114°N, 117.737°W
Report Text: KNID 231156Z AUTO 31003KT 10SM CLR 07/M02 A3013 RMK AO2 SLP201 T00671017 10111 20050 51030 $
Loading
Personal Weather Stations






























Interactive Weather Map New forecast layout! Learn more

10-Day Weather Forecast

Advertisements
Track Severe Weather on mobile